createdAt,value
2018-07-13T00:00:41.825Z,13.05
2018-07-13T00:01:45.769Z,11.97
2018-07-13T00:02:49.697Z,8.93
2018-07-13T00:03:53.605Z,10.32
2018-07-13T00:04:57.569Z,10.60
2018-07-13T00:06:01.647Z,10.68
2018-07-13T00:07:06.111Z,9.23
2018-07-13T00:08:10.405Z,10.08
2018-07-13T00:09:14.736Z,14.03
2018-07-13T00:10:18.578Z,13.95
2018-07-13T00:11:22.920Z,12.73
2018-07-13T00:12:29.683Z,10.90
2018-07-13T00:13:38.957Z,9.95
2018-07-13T00:14:54.211Z,9.73
2018-07-13T00:16:01.337Z,11.60
2018-07-13T00:17:05.448Z,10.38
2018-07-13T00:18:09.659Z,11.43
2018-07-13T00:19:14.568Z,17.42
2018-07-13T00:20:19.218Z,9.48
2018-07-13T00:21:23.061Z,11.93
2018-07-13T00:22:29.087Z,12.65
2018-07-13T00:23:34.422Z,15.50
2018-07-13T00:24:38.556Z,17.82
2018-07-13T00:25:43.766Z,14.07
2018-07-13T00:26:47.801Z,19.55
2018-07-13T00:27:52.042Z,12.50
2018-07-13T00:28:56.194Z,15.32
2018-07-13T00:30:00.110Z,17.62
2018-07-13T00:31:04.250Z,13.53
2018-07-13T00:32:07.997Z,14.87
2018-07-13T00:33:12.365Z,13.30
2018-07-13T00:34:16.252Z,15.72
2018-07-13T00:35:20.093Z,16.42
2018-07-13T00:36:24.059Z,18.07
2018-07-13T00:37:27.939Z,15.28
2018-07-13T00:38:32.348Z,15.80
2018-07-13T00:39:36.502Z,14.45
2018-07-13T00:40:40.866Z,20.60
2018-07-13T00:41:44.745Z,13.90
2018-07-13T00:42:48.721Z,14.38
2018-07-13T00:43:54.218Z,23.50
2018-07-13T00:44:58.368Z,15.00
2018-07-13T00:46:02.259Z,11.45
2018-07-13T00:47:06.360Z,16.85
2018-07-13T00:48:10.444Z,14.93
2018-07-13T00:49:14.365Z,14.55
2018-07-13T00:50:18.264Z,16.00
2018-07-13T00:51:22.101Z,17.67
2018-07-13T00:52:25.910Z,13.22
2018-07-13T00:53:29.946Z,11.43
2018-07-13T00:54:35.104Z,15.45
2018-07-13T00:55:39.223Z,11.68
2018-07-13T00:56:43.075Z,13.93
2018-07-13T00:57:46.931Z,22.35
2018-07-13T00:58:50.829Z,15.25
2018-07-13T00:59:54.770Z,15.30
2018-07-13T01:00:58.969Z,12.28
2018-07-13T01:02:02.830Z,15.05
2018-07-13T01:03:06.390Z,11.08
2018-07-13T01:04:10.246Z,13.68
2018-07-13T01:05:14.450Z,17.92
2018-07-13T01:06:19.195Z,16.12
2018-07-13T01:07:23.651Z,11.85
2018-07-13T01:08:27.790Z,20.60
2018-07-13T01:09:31.684Z,12.05
2018-07-13T01:12:32.014Z,11.55
2018-07-13T01:13:35.996Z,14.60
2018-07-13T01:14:39.834Z,10.82
2018-07-13T01:15:43.775Z,17.98
2018-07-13T01:16:47.641Z,28.25
2018-07-13T01:17:51.641Z,16.60
2018-07-13T01:18:55.493Z,12.85
2018-07-13T01:19:59.327Z,19.00
2018-07-13T01:21:03.358Z,25.00
2018-07-13T01:22:07.189Z,14.13
2018-07-13T01:23:11.293Z,13.58
2018-07-13T01:24:15.527Z,14.83
2018-07-13T01:25:19.403Z,13.80
2018-07-13T01:26:23.253Z,17.62
2018-07-13T01:27:28.164Z,14.60
2018-07-13T01:28:32.010Z,13.45
2018-07-13T01:29:35.826Z,21.90
2018-07-13T01:30:39.916Z,12.75
2018-07-13T01:31:43.731Z,12.43
2018-07-13T01:32:47.162Z,16.62
2018-07-13T01:33:51.463Z,20.20
2018-07-13T01:34:55.291Z,20.48
2018-07-13T01:35:59.247Z,14.78
2018-07-13T01:37:03.289Z,14.63
2018-07-13T01:38:07.228Z,15.55
2018-07-13T01:39:13.038Z,16.52
2018-07-13T01:40:16.863Z,15.03
2018-07-13T01:41:21.111Z,15.68
2018-07-13T01:42:25.141Z,14.75
2018-07-13T01:43:29.037Z,10.40
2018-07-13T01:44:33.048Z,20.17
2018-07-13T01:45:37.130Z,14.95
2018-07-13T01:46:40.962Z,11.28
2018-07-13T01:47:44.951Z,15.13
2018-07-13T01:48:48.725Z,16.45
2018-07-13T01:49:52.552Z,13.75
2018-07-13T01:50:56.525Z,12.68
2018-07-13T01:52:00.455Z,14.47
2018-07-13T01:53:04.635Z,17.15
2018-07-13T01:54:08.468Z,22.77
2018-07-13T01:55:12.425Z,14.38
2018-07-13T01:56:16.288Z,9.25
2018-07-13T01:57:20.168Z,14.10
2018-07-13T01:58:24.183Z,13.55
2018-07-13T01:59:28.336Z,17.48
2018-07-13T02:00:32.318Z,12.98
2018-07-13T02:01:36.346Z,17.98
2018-07-13T02:02:40.229Z,11.40
2018-07-13T02:03:44.091Z,11.33
2018-07-13T02:04:48.228Z,10.55
2018-07-13T02:05:52.951Z,11.73
2018-07-13T02:06:56.791Z,16.35
2018-07-13T02:08:00.704Z,13.60
2018-07-13T02:09:05.924Z,10.28
2018-07-13T02:10:09.784Z,14.58
2018-07-13T02:11:13.591Z,17.30
2018-07-13T02:12:17.891Z,16.42
2018-07-13T02:13:21.878Z,12.00
2018-07-13T02:14:26.739Z,15.78
2018-07-13T02:15:31.100Z,12.80
2018-07-13T02:16:35.044Z,24.37
2018-07-13T02:17:39.243Z,11.95
2018-07-13T02:18:43.368Z,17.95
2018-07-13T02:19:47.491Z,17.50
2018-07-13T02:20:51.302Z,13.70
2018-07-13T02:21:55.113Z,13.03
2018-07-13T02:22:59.352Z,19.65
2018-07-13T02:24:03.216Z,15.68
2018-07-13T02:25:07.112Z,18.37
2018-07-13T02:26:11.071Z,17.05
2018-07-13T02:27:15.992Z,23.38
2018-07-13T02:28:19.834Z,11.57
2018-07-13T02:29:23.759Z,18.92
2018-07-13T02:30:27.651Z,13.40
2018-07-13T02:31:31.581Z,14.53
2018-07-13T02:32:35.589Z,19.35
2018-07-13T02:33:39.732Z,10.98
2018-07-13T02:34:43.628Z,15.00
2018-07-13T02:35:47.379Z,19.95
2018-07-13T02:36:52.110Z,23.30
2018-07-13T02:37:55.946Z,17.52
2018-07-13T02:38:59.942Z,13.62
2018-07-13T02:40:04.011Z,14.80
2018-07-13T02:41:08.011Z,12.15
2018-07-13T02:42:12.006Z,12.58
2018-07-13T02:43:16.598Z,16.73
2018-07-13T02:44:21.378Z,13.70
2018-07-13T02:45:25.503Z,13.45
2018-07-13T02:46:29.658Z,16.30
2018-07-13T02:47:33.542Z,17.12
2018-07-13T02:48:37.481Z,20.88
2018-07-13T02:49:42.407Z,19.10
2018-07-13T02:50:46.523Z,15.65
2018-07-13T02:51:51.642Z,18.02
2018-07-13T02:52:56.439Z,18.40
2018-07-13T02:54:00.335Z,12.70
2018-07-13T02:55:04.304Z,16.85
2018-07-13T02:56:08.380Z,14.15
2018-07-13T02:57:12.417Z,25.37
2018-07-13T02:58:16.412Z,19.17
2018-07-13T02:59:20.470Z,15.45
2018-07-13T03:00:24.417Z,18.52
2018-07-13T03:01:28.254Z,10.10
2018-07-13T03:02:32.185Z,19.62
2018-07-13T03:03:36.081Z,13.25
2018-07-13T03:04:40.267Z,18.55
2018-07-13T03:05:44.518Z,14.95
2018-07-13T03:06:48.407Z,17.60
2018-07-13T03:07:52.861Z,16.17
2018-07-13T03:08:58.021Z,17.77
2018-07-13T03:10:01.905Z,12.07
2018-07-13T03:11:06.270Z,17.65
2018-07-13T03:12:10.356Z,15.70
2018-07-13T03:13:14.351Z,23.50
2018-07-13T03:14:18.360Z,23.42
2018-07-13T03:15:22.530Z,18.70
2018-07-13T03:16:26.523Z,18.73
2018-07-13T03:17:30.696Z,15.80
2018-07-13T03:18:35.177Z,16.00
2018-07-13T03:19:39.027Z,19.02
2018-07-13T03:20:42.913Z,19.27
2018-07-13T03:21:47.077Z,19.35
2018-07-13T03:22:52.094Z,15.83
2018-07-13T03:23:56.075Z,19.45
2018-07-13T03:24:59.928Z,14.00
2018-07-13T03:26:04.094Z,19.45
2018-07-13T03:27:07.950Z,16.05
2018-07-13T03:28:11.892Z,19.48
2018-07-13T03:29:16.415Z,16.95
2018-07-13T03:30:21.120Z,18.73
2018-07-13T03:31:25.652Z,15.03
2018-07-13T03:32:29.660Z,11.90
2018-07-13T03:33:33.572Z,21.75
2018-07-13T03:34:37.549Z,15.68
2018-07-13T03:35:41.625Z,15.85
2018-07-13T03:36:45.487Z,26.97
2018-07-13T03:37:49.277Z,22.25
2018-07-13T03:38:53.034Z,12.70
2018-07-13T03:39:56.936Z,18.73
2018-07-13T03:41:00.851Z,16.90
2018-07-13T03:42:04.787Z,15.10
2018-07-13T03:43:08.912Z,17.98
2018-07-13T03:44:12.815Z,16.37
2018-07-13T03:45:16.835Z,18.80
2018-07-13T03:46:21.320Z,15.60
2018-07-13T03:47:25.128Z,27.35
2018-07-13T03:48:28.877Z,18.65
2018-07-13T03:49:32.851Z,17.67
2018-07-13T03:50:37.004Z,17.15
2018-07-13T03:51:40.815Z,18.62
2018-07-13T03:52:44.765Z,13.28
2018-07-13T03:53:48.575Z,15.78
2018-07-13T03:54:52.041Z,15.53
2018-07-13T03:55:56.033Z,17.42
2018-07-13T03:57:00.009Z,17.48
2018-07-13T03:58:06.084Z,18.32
2018-07-13T03:59:10.519Z,27.15
2018-07-13T04:00:14.003Z,21.37
2018-07-13T04:01:18.666Z,18.52
2018-07-13T04:02:22.607Z,17.15
2018-07-13T04:03:26.757Z,18.80
2018-07-13T04:04:30.776Z,13.68
2018-07-13T04:05:34.193Z,19.05
2018-07-13T04:06:38.758Z,15.83
2018-07-13T04:07:42.828Z,17.07
2018-07-13T04:08:46.937Z,17.90
2018-07-13T04:09:51.106Z,20.15
2018-07-13T04:10:54.631Z,23.98
2018-07-13T04:11:58.769Z,18.90
2018-07-13T04:13:02.774Z,20.35
2018-07-13T04:14:07.643Z,18.27
2018-07-13T04:15:11.559Z,22.37
2018-07-13T04:16:16.828Z,16.65
2018-07-13T04:17:20.744Z,18.00
2018-07-13T04:18:25.119Z,12.43
2018-07-13T04:19:29.182Z,20.77
2018-07-13T04:20:33.138Z,22.45
2018-07-13T04:21:37.166Z,18.37
2018-07-13T04:22:41.130Z,20.05
2018-07-13T04:23:45.227Z,18.48
2018-07-13T04:24:50.249Z,19.62
2018-07-13T04:25:54.288Z,24.12
2018-07-13T04:26:58.368Z,20.35
2018-07-13T04:28:02.250Z,28.45
2018-07-13T04:29:06.562Z,18.55
2018-07-13T04:30:10.613Z,16.05
2018-07-13T04:31:14.582Z,15.40
2018-07-13T04:32:18.470Z,19.20
2018-07-13T04:33:22.520Z,26.33
2018-07-13T04:34:26.550Z,16.40
2018-07-13T04:35:31.687Z,17.95
2018-07-13T04:36:35.511Z,22.17
2018-07-13T04:37:40.728Z,16.35
2018-07-13T04:38:44.527Z,20.85
2018-07-13T04:39:49.164Z,23.40
2018-07-13T04:40:53.296Z,26.23
2018-07-13T04:42:00.398Z,19.50
2018-07-13T04:43:05.463Z,21.70
2018-07-13T04:44:09.959Z,20.68
2018-07-13T04:45:14.180Z,22.00
2018-07-13T04:46:18.329Z,18.67
2018-07-13T04:47:22.216Z,28.15
2018-07-13T04:48:26.493Z,20.55
2018-07-13T04:49:30.431Z,16.70
2018-07-13T04:50:34.313Z,20.88
2018-07-13T04:51:39.045Z,28.98
2018-07-13T04:52:42.999Z,22.87
2018-07-13T04:53:46.692Z,17.27
2018-07-13T04:54:50.407Z,25.12
2018-07-13T04:55:54.660Z,23.98
2018-07-13T04:57:00.306Z,27.35
2018-07-13T04:58:04.801Z,25.17
2018-07-13T04:59:08.808Z,18.07
2018-07-13T05:00:12.896Z,23.07
2018-07-13T05:01:16.840Z,17.82
2018-07-13T05:02:21.299Z,17.45
2018-07-13T05:03:26.049Z,21.10
2018-07-13T05:04:29.964Z,30.02
2018-07-13T05:05:34.869Z,24.25
2018-07-13T05:06:38.955Z,24.12
2018-07-13T05:07:43.266Z,20.62
2018-07-13T05:08:48.090Z,23.38
2018-07-13T05:09:51.981Z,19.50
2018-07-13T05:10:55.995Z,22.25
2018-07-13T05:11:59.652Z,22.87
2018-07-13T05:13:04.164Z,28.85
2018-07-13T05:14:08.144Z,17.60
2018-07-13T05:15:12.887Z,24.45
2018-07-13T05:16:17.579Z,19.15
2018-07-13T05:17:21.722Z,22.95
2018-07-13T05:18:25.824Z,26.68
2018-07-13T05:19:30.641Z,18.15
2018-07-13T05:20:34.694Z,20.40
2018-07-13T05:21:39.019Z,26.30
2018-07-13T05:22:43.137Z,27.22
2018-07-13T05:23:47.475Z,20.60
2018-07-13T05:24:51.517Z,19.02
2018-07-13T05:25:56.287Z,21.35
2018-07-13T05:27:00.584Z,18.80
2018-07-13T05:28:04.859Z,32.20
2018-07-13T05:29:08.804Z,21.82
2018-07-13T05:30:13.207Z,21.75
2018-07-13T05:31:17.236Z,23.50
2018-07-13T05:32:21.060Z,27.30
2018-07-13T05:33:25.234Z,21.02
2018-07-13T05:34:29.740Z,29.95
2018-07-13T05:35:33.624Z,22.13
2018-07-13T05:36:37.766Z,20.27
2018-07-13T05:37:42.263Z,25.17
2018-07-13T05:38:46.559Z,21.15
2018-07-13T05:39:50.482Z,30.15
2018-07-13T05:40:54.855Z,26.15
2018-07-13T05:41:58.848Z,21.57
2018-07-13T05:43:02.959Z,33.53
2018-07-13T05:44:06.980Z,19.70
2018-07-13T05:45:12.058Z,23.18
2018-07-13T05:46:17.511Z,30.97
2018-07-13T05:47:21.635Z,27.35
2018-07-13T05:48:25.703Z,26.85
2018-07-13T05:49:30.128Z,29.98
2018-07-13T05:50:34.531Z,31.17
2018-07-13T05:51:38.080Z,31.52
2018-07-13T05:52:42.023Z,26.75
2018-07-13T05:53:45.936Z,25.20
2018-07-13T05:54:50.190Z,39.53
2018-07-13T05:55:54.253Z,29.12
2018-07-13T05:56:58.209Z,31.85
2018-07-13T05:58:02.375Z,31.20
2018-07-13T05:59:07.495Z,21.80
2018-07-13T06:00:16.180Z,26.60
2018-07-13T06:01:22.844Z,23.80
2018-07-13T06:02:27.282Z,24.75
2018-07-13T06:03:31.778Z,33.42
2018-07-13T06:04:36.512Z,26.17
2018-07-13T06:05:41.123Z,28.02
2018-07-13T06:06:45.394Z,28.42
2018-07-13T06:07:49.327Z,30.80
2018-07-13T06:08:53.268Z,25.50
2018-07-13T06:09:57.251Z,32.75
2018-07-13T06:11:01.204Z,27.48
2018-07-13T06:12:04.898Z,25.43
2018-07-13T06:13:10.814Z,29.70
2018-07-13T06:14:19.438Z,27.42
2018-07-13T06:15:23.440Z,26.15
2018-07-13T06:16:27.399Z,23.32
2018-07-13T06:17:31.262Z,23.32
2018-07-13T06:18:35.247Z,31.73
2018-07-13T06:19:40.191Z,36.60
2018-07-13T06:20:44.728Z,36.35
2018-07-13T06:21:49.300Z,27.62
2018-07-13T06:22:54.222Z,29.77
2018-07-13T06:23:58.203Z,34.63
2018-07-13T06:25:02.075Z,29.75
2018-07-13T06:26:06.616Z,26.50
2018-07-13T06:27:16.157Z,28.10
2018-07-13T06:28:21.103Z,27.60
2018-07-13T06:29:25.171Z,32.08
2018-07-13T06:30:29.067Z,58.28
2018-07-13T06:31:33.740Z,35.60
2018-07-13T06:32:38.602Z,23.92
2018-07-13T06:33:42.471Z,30.57
2018-07-13T06:34:46.347Z,26.20
2018-07-13T06:35:50.471Z,25.55
2018-07-13T06:36:56.471Z,27.90
2018-07-13T06:38:00.375Z,30.35
2018-07-13T06:39:07.911Z,31.90
2018-07-13T06:40:11.890Z,28.32
2018-07-13T06:41:15.856Z,35.95
2018-07-13T06:42:20.384Z,30.75
2018-07-13T06:43:27.340Z,29.70
2018-07-13T06:45:01.666Z,29.87
2018-07-13T06:46:14.627Z,32.48
2018-07-13T06:47:24.009Z,32.95
2018-07-13T06:48:32.256Z,32.50
2018-07-13T06:49:36.211Z,34.55
2018-07-13T06:50:40.306Z,29.35
2018-07-13T06:51:47.191Z,35.38
2018-07-13T06:52:51.230Z,25.00
2018-07-13T06:53:55.269Z,48.20
2018-07-13T06:54:59.191Z,34.75
2018-07-13T06:56:04.131Z,35.75
2018-07-13T06:57:08.227Z,30.60
2018-07-13T06:58:23.220Z,37.48
2018-07-13T06:59:27.316Z,40.15
2018-07-13T07:01:09.346Z,27.10
2018-07-13T07:02:30.238Z,37.33
2018-07-13T07:04:47.776Z,35.05
2018-07-13T07:06:00.813Z,35.35
2018-07-13T07:07:09.290Z,39.05
2018-07-13T07:08:13.412Z,33.38
2018-07-13T07:09:23.872Z,32.25
2018-07-13T07:10:56.984Z,38.20
2018-07-13T07:14:14.179Z,40.48
2018-07-13T07:15:24.721Z,34.48
2018-07-13T07:16:33.751Z,33.55
2018-07-13T07:17:40.156Z,36.28
2018-07-13T07:18:47.063Z,37.67
2018-07-13T07:19:51.643Z,37.10
2018-07-13T07:21:00.751Z,30.37
2018-07-13T07:27:13.671Z,25.82
2018-07-13T07:31:50.926Z,37.38
2018-07-13T07:34:58.660Z,31.93
2018-07-13T07:36:17.712Z,35.75
2018-07-13T07:37:32.395Z,36.35
2018-07-13T07:38:41.351Z,32.20
2018-07-13T07:40:08.484Z,34.10
2018-07-13T07:41:27.661Z,31.62
2018-07-13T07:43:38.885Z,36.20
2018-07-13T07:47:03.268Z,27.67
2018-07-13T07:48:11.772Z,29.98
2018-07-13T07:52:40.462Z,30.45
2018-07-13T07:53:52.579Z,29.67
2018-07-13T07:58:18.204Z,31.37
2018-07-13T08:01:09.017Z,31.00
2018-07-13T08:05:30.437Z,28.90
2018-07-13T08:18:58.610Z,23.57
2018-07-13T17:47:36.216Z,13.30
2018-07-13T17:48:40.248Z,8.78
2018-07-13T17:49:45.451Z,10.95
2018-07-13T17:50:49.678Z,12.85
2018-07-13T17:51:53.808Z,12.15
2018-07-13T17:52:58.542Z,14.20
2018-07-13T17:54:02.572Z,10.68
2018-07-13T17:55:07.632Z,15.08
2018-07-13T17:56:12.254Z,14.80
2018-07-13T17:57:16.306Z,13.08
2018-07-13T17:58:20.099Z,10.15
2018-07-13T17:59:24.812Z,14.87
2018-07-13T18:00:29.866Z,9.73
2018-07-13T18:01:34.053Z,14.13
2018-07-13T18:02:38.198Z,17.00
2018-07-13T18:03:42.010Z,10.78
2018-07-13T18:04:46.196Z,13.38
2018-07-13T18:05:50.237Z,10.35
2018-07-13T18:06:56.817Z,11.95
2018-07-13T18:08:00.667Z,10.38
2018-07-13T18:09:05.483Z,13.38
2018-07-13T18:10:12.327Z,15.98
2018-07-13T18:11:16.508Z,14.20
2018-07-13T18:12:20.564Z,15.95
2018-07-13T18:13:29.419Z,13.22
2018-07-13T18:14:33.475Z,12.82
2018-07-13T18:15:38.271Z,11.33
2018-07-13T18:16:43.838Z,15.28
2018-07-13T18:17:47.920Z,11.60
2018-07-13T18:18:52.175Z,10.10
2018-07-13T18:19:57.270Z,18.60
2018-07-13T18:21:01.784Z,12.95
2018-07-13T18:22:05.620Z,11.60
2018-07-13T18:23:09.757Z,9.88
2018-07-13T18:24:13.663Z,15.23
2018-07-13T18:25:17.830Z,17.70
2018-07-13T18:26:22.688Z,11.28
2018-07-13T18:27:26.467Z,10.35
2018-07-13T18:28:30.906Z,12.10
2018-07-13T18:29:35.607Z,9.40
2018-07-13T18:30:39.360Z,8.23
2018-07-13T18:31:43.335Z,11.30
2018-07-13T18:32:47.588Z,10.70
2018-07-13T18:33:52.837Z,14.58
2018-07-13T18:34:56.692Z,8.25
2018-07-13T18:36:00.468Z,9.45
2018-07-13T18:37:04.311Z,9.35
2018-07-13T18:38:08.273Z,15.53
2018-07-13T18:39:13.260Z,13.53
2018-07-13T18:40:17.228Z,14.25
2018-07-13T18:41:21.168Z,16.48
2018-07-13T18:42:25.173Z,12.47
2018-07-13T18:43:29.291Z,13.60
2018-07-13T18:44:33.688Z,13.72
2018-07-13T18:45:37.510Z,12.50
2018-07-13T18:46:41.510Z,12.15
2018-07-13T18:47:45.793Z,13.62
2018-07-13T18:48:49.690Z,9.33
2018-07-13T18:49:54.500Z,12.90
2018-07-13T18:50:58.300Z,9.13
2018-07-13T18:52:03.441Z,8.85
2018-07-13T18:53:16.535Z,11.90
2018-07-13T18:54:20.606Z,9.33
2018-07-13T18:55:24.532Z,11.08
2018-07-13T18:56:29.284Z,11.43
2018-07-13T18:57:34.105Z,10.23
2018-07-13T18:58:38.697Z,14.07
2018-07-13T19:00:00.527Z,7.62
2018-07-13T19:01:04.771Z,8.68
2018-07-13T19:02:08.655Z,8.10
2018-07-13T19:03:13.845Z,8.35
2018-07-13T19:04:18.296Z,7.72
2018-07-13T19:05:24.682Z,10.00
2018-07-13T19:06:29.572Z,11.18
2018-07-13T19:07:34.629Z,9.78
2018-07-13T19:08:41.778Z,10.72
2018-07-13T19:09:46.205Z,9.00
2018-07-13T19:10:50.692Z,10.85
2018-07-13T19:11:58.133Z,12.50
2018-07-13T19:13:02.067Z,10.03
2018-07-13T19:14:08.635Z,12.58
2018-07-13T19:15:15.396Z,14.73
2018-07-13T19:16:20.185Z,10.55
2018-07-13T19:17:30.258Z,10.32
2018-07-13T19:18:37.627Z,11.50
2018-07-13T19:19:43.320Z,8.45
2018-07-13T19:20:47.659Z,7.58
2018-07-13T19:21:52.251Z,11.08
2018-07-13T19:22:56.518Z,12.55
2018-07-13T19:24:04.447Z,16.50
2018-07-13T19:25:10.012Z,12.78
2018-07-13T19:26:13.922Z,13.22
2018-07-13T19:27:21.240Z,20.25
2018-07-13T19:28:25.085Z,10.55
2018-07-13T19:29:29.505Z,10.25
2018-07-13T19:30:38.242Z,12.30
2018-07-13T19:31:44.173Z,11.78
2018-07-13T19:32:49.106Z,13.15
2018-07-13T19:33:55.444Z,11.97
2018-07-13T19:35:01.220Z,11.12
2018-07-13T19:36:06.106Z,13.65
2018-07-13T19:37:09.999Z,11.97
2018-07-13T19:38:14.723Z,9.08
2018-07-13T19:39:21.903Z,17.12
2018-07-13T19:40:26.734Z,9.90
2018-07-13T19:41:32.305Z,11.80
2018-07-13T19:42:40.168Z,9.83
2018-07-13T19:43:45.618Z,12.47
2018-07-13T19:44:49.707Z,9.73
2018-07-13T19:45:53.688Z,17.05
2018-07-13T19:46:58.828Z,15.72
2018-07-13T19:48:03.585Z,14.05
2018-07-13T19:49:09.161Z,14.28
2018-07-13T19:50:13.881Z,7.15
2018-07-13T19:51:19.949Z,9.20
2018-07-13T19:52:27.611Z,8.95
2018-07-13T19:53:32.178Z,11.88
2018-07-13T19:54:38.739Z,11.38
2018-07-13T19:55:43.108Z,16.20
2018-07-13T19:56:47.335Z,10.45
2018-07-13T19:57:53.661Z,9.85
2018-07-13T19:58:57.707Z,11.20
2018-07-13T20:00:02.323Z,11.65
2018-07-13T20:01:07.435Z,13.15
2018-07-13T20:02:11.734Z,9.20
2018-07-13T20:03:15.745Z,12.75
2018-07-13T20:04:19.721Z,13.18
2018-07-13T20:05:26.030Z,11.20
2018-07-13T20:06:30.066Z,12.40
2018-07-13T20:07:34.415Z,10.40
2018-07-13T20:08:42.257Z,17.87
2018-07-13T20:09:46.807Z,16.05
2018-07-13T20:10:51.639Z,9.53
2018-07-13T20:11:57.848Z,9.63
2018-07-13T20:13:04.312Z,12.40
2018-07-13T20:14:12.577Z,13.75
2018-07-13T20:15:18.314Z,9.88
2018-07-13T20:16:25.528Z,12.45
2018-07-13T20:17:32.347Z,17.20
2018-07-13T20:18:36.644Z,15.68
2018-07-13T20:19:42.717Z,11.55
2018-07-13T20:20:48.775Z,17.10
2018-07-13T20:21:53.073Z,10.40
2018-07-13T20:22:57.235Z,11.55
2018-07-13T20:24:02.434Z,10.68
2018-07-13T20:25:08.496Z,11.60
2018-07-13T20:26:18.259Z,16.23
2018-07-13T20:27:22.646Z,10.60
2018-07-13T20:28:29.645Z,14.98
2018-07-13T20:30:48.387Z,16.82
2018-07-13T20:32:00.417Z,14.40
2018-07-13T20:33:05.460Z,12.58
2018-07-13T20:34:10.430Z,9.85
2018-07-13T20:35:14.775Z,9.40
2018-07-13T20:36:19.285Z,11.40
2018-07-13T20:37:24.077Z,8.83
2018-07-13T20:38:28.319Z,10.25
2018-07-13T20:39:32.790Z,11.83
2018-07-13T20:40:38.035Z,10.98
2018-07-13T20:41:43.179Z,10.53
2018-07-13T20:42:48.084Z,11.08
2018-07-13T20:43:52.211Z,11.63
2018-07-13T20:44:55.786Z,8.28
2018-07-13T20:46:00.283Z,9.93
2018-07-13T20:47:04.207Z,9.10
2018-07-13T20:48:08.052Z,9.35
2018-07-13T20:49:12.716Z,16.52
2018-07-13T20:50:16.941Z,8.48
2018-07-13T20:51:23.287Z,11.80
2018-07-13T20:52:27.599Z,14.33
2018-07-13T20:53:39.197Z,14.30
2018-07-13T20:54:59.708Z,12.55
2018-07-13T20:56:23.987Z,9.55
2018-07-13T20:57:28.307Z,11.83
2018-07-13T20:58:32.439Z,15.40
2018-07-13T20:59:36.230Z,10.63
2018-07-13T21:00:41.427Z,14.47
2018-07-13T21:01:47.747Z,9.13
2018-07-13T21:02:54.457Z,10.53
2018-07-13T21:03:59.252Z,8.65
2018-07-13T21:05:03.331Z,8.73
2018-07-13T21:06:07.367Z,10.00
2018-07-13T21:07:11.349Z,8.78
2018-07-13T21:08:15.520Z,9.83
2018-07-13T21:09:21.498Z,13.72
2018-07-13T21:10:28.604Z,10.98
2018-07-13T21:11:35.272Z,9.53
2018-07-13T21:12:42.613Z,11.55
2018-07-13T21:13:47.417Z,10.18
2018-07-13T21:14:53.387Z,8.85
2018-07-13T21:15:59.065Z,11.30
2018-07-13T21:17:07.473Z,10.35
2018-07-13T21:18:12.419Z,7.67
2018-07-13T21:19:19.230Z,11.78
2018-07-13T21:20:24.221Z,10.78
2018-07-13T21:21:28.181Z,8.75
2018-07-13T21:22:33.282Z,12.30
2018-07-13T21:23:39.256Z,15.58
2018-07-13T21:24:46.321Z,9.45
2018-07-13T21:25:52.455Z,9.35
2018-07-13T21:26:58.215Z,12.00
2018-07-13T21:28:03.677Z,10.88
2018-07-13T21:29:08.840Z,7.40
2018-07-13T21:30:13.561Z,14.47
2018-07-13T21:31:18.263Z,10.32
2018-07-13T21:32:23.422Z,12.78
2018-07-13T21:33:28.919Z,9.33
2018-07-13T21:34:33.080Z,10.35
2018-07-13T21:35:37.075Z,13.45
2018-07-13T21:36:40.994Z,8.90
2018-07-13T21:37:45.176Z,10.75
2018-07-13T21:38:53.692Z,16.65
2018-07-13T21:39:57.704Z,15.88
2018-07-13T21:41:01.539Z,12.03
2018-07-13T21:42:05.508Z,14.35
2018-07-13T21:43:09.568Z,13.03
2018-07-13T21:44:17.700Z,9.75
2018-07-13T21:45:21.813Z,12.40
2018-07-13T21:46:25.529Z,12.50
2018-07-13T21:47:29.407Z,12.10
2018-07-13T21:48:34.617Z,15.85
2018-07-13T21:49:38.763Z,13.30
2018-07-13T21:50:43.175Z,15.95
2018-07-13T21:51:48.175Z,22.27
2018-07-13T21:52:51.620Z,19.73
2018-07-13T21:53:58.192Z,17.45
2018-07-13T21:55:02.818Z,17.12
2018-07-13T21:56:07.189Z,13.18
2018-07-13T21:57:10.971Z,19.42
2018-07-13T21:58:15.133Z,23.35
2018-07-13T21:59:19.160Z,18.70
2018-07-13T22:00:23.257Z,18.82
2018-07-13T22:01:27.702Z,22.73
2018-07-13T22:02:33.386Z,17.90
2018-07-13T22:03:37.137Z,15.55
2018-07-13T22:04:41.716Z,16.45
2018-07-13T22:05:48.032Z,17.10
2018-07-13T22:06:52.713Z,23.47
2018-07-13T22:07:57.261Z,23.02
2018-07-13T22:09:01.542Z,15.45
2018-07-13T22:10:05.568Z,18.37
2018-07-13T22:11:10.663Z,18.73
2018-07-13T22:12:14.491Z,11.25
2018-07-13T22:13:18.717Z,14.15
2018-07-13T22:14:22.919Z,14.07
2018-07-13T22:15:26.726Z,12.73
2018-07-13T22:16:34.350Z,15.98
2018-07-13T22:17:38.710Z,13.65
2018-07-13T22:18:42.508Z,12.60
2018-07-13T22:19:47.180Z,16.12
2018-07-13T22:20:52.533Z,19.37
2018-07-13T22:21:56.364Z,11.68
2018-07-13T22:23:01.231Z,11.88
2018-07-13T22:24:05.067Z,14.33
2018-07-13T22:25:09.500Z,10.72
2018-07-13T22:26:13.281Z,9.80
2018-07-13T22:27:17.119Z,10.35
2018-07-13T22:28:21.096Z,14.47
2018-07-13T22:29:24.853Z,10.75
2018-07-13T22:30:29.896Z,15.43
2018-07-13T22:31:34.650Z,16.70
2018-07-13T22:32:38.716Z,15.08
2018-07-13T22:33:42.855Z,16.62
2018-07-13T22:34:47.094Z,20.68
2018-07-13T22:35:51.180Z,15.58
2018-07-13T22:36:55.094Z,16.27
2018-07-13T22:37:59.472Z,13.08
2018-07-13T22:39:05.150Z,14.38
2018-07-13T22:40:09.210Z,16.70
2018-07-13T22:41:13.367Z,15.63
2018-07-13T22:42:17.722Z,16.42
2018-07-13T22:43:22.210Z,10.38
2018-07-13T22:44:28.096Z,11.80
2018-07-13T22:45:31.980Z,13.68
2018-07-13T22:46:35.979Z,15.63
2018-07-13T22:47:40.340Z,10.30
2018-07-13T22:48:44.388Z,10.93
2018-07-13T22:49:48.440Z,11.15
2018-07-13T22:50:52.397Z,11.30
2018-07-13T22:51:56.260Z,13.20
2018-07-13T22:53:00.288Z,10.20
2018-07-13T22:54:04.139Z,9.30
2018-07-13T22:55:08.964Z,11.97
2018-07-13T22:56:13.181Z,10.48
2018-07-13T22:57:16.983Z,11.90
2018-07-13T22:58:20.859Z,15.28
2018-07-13T22:59:25.247Z,11.95
2018-07-13T23:00:30.131Z,11.85
2018-07-13T23:01:36.004Z,14.33
2018-07-13T23:02:40.192Z,11.35
2018-07-13T23:03:44.428Z,16.20
2018-07-13T23:04:48.476Z,9.75
2018-07-13T23:05:52.235Z,11.30
2018-07-13T23:06:56.512Z,10.32
2018-07-13T23:08:00.279Z,9.78
2018-07-13T23:09:04.776Z,10.58
2018-07-13T23:10:08.563Z,13.65
2018-07-13T23:11:15.394Z,11.63
2018-07-13T23:12:19.577Z,12.93
2018-07-13T23:13:23.902Z,10.05
2018-07-13T23:14:28.116Z,11.95
2018-07-13T23:15:34.855Z,12.13
2018-07-13T23:16:39.766Z,10.18
2018-07-13T23:17:44.204Z,14.73
2018-07-13T23:18:48.168Z,8.63
2018-07-13T23:19:52.448Z,9.40
2018-07-13T23:20:56.339Z,11.35
2018-07-13T23:22:00.169Z,11.00
2018-07-13T23:23:05.020Z,16.20
2018-07-13T23:24:09.679Z,11.20
2018-07-13T23:25:13.762Z,13.28
2018-07-13T23:26:18.132Z,12.03
2018-07-13T23:27:22.582Z,9.75
2018-07-13T23:28:26.681Z,12.25
2018-07-13T23:29:30.355Z,9.25
2018-07-13T23:30:34.139Z,13.85
2018-07-13T23:31:38.852Z,14.90
2018-07-13T23:32:43.705Z,13.10
2018-07-13T23:33:48.429Z,15.83
2018-07-13T23:34:54.211Z,13.85
2018-07-13T23:35:58.335Z,19.57
2018-07-13T23:37:03.409Z,12.85
2018-07-13T23:38:07.988Z,15.95
2018-07-13T23:39:13.264Z,15.05
2018-07-13T23:40:17.392Z,12.53
2018-07-13T23:41:21.374Z,10.05
2018-07-13T23:42:25.448Z,12.68
2018-07-13T23:43:29.783Z,12.90
2018-07-13T23:44:33.627Z,13.35
2018-07-13T23:45:37.783Z,9.80
2018-07-13T23:46:41.843Z,10.90
2018-07-13T23:47:45.947Z,10.53
2018-07-13T23:48:49.985Z,12.07
2018-07-13T23:49:53.860Z,12.58
2018-07-13T23:50:58.198Z,13.53
2018-07-13T23:52:02.351Z,14.13
2018-07-13T23:53:06.187Z,15.48
2018-07-13T23:54:10.493Z,12.13
2018-07-13T23:55:14.682Z,16.25
2018-07-13T23:56:19.145Z,11.88
2018-07-13T23:57:23.410Z,14.83
2018-07-13T23:58:27.190Z,17.37
2018-07-13T23:59:32.683Z,17.12
